Time;durP1;ratioP1;P1;durP2;ratioP2;P2;SDS_P1;SDS_P2;PMS_P1;PMS_P2;Temp;Humidity;BMP_temperature;BMP_pressure;BME280_temperature;BME280_humidity;BME280_pressure;Samples;Min_cycle;Max_cycle;Signal;HPM_P1;HPM_P2
2020/12/31 00:00:25;;;;;;;1.70;0.20;;;3.90;99.90;;;;;;5056544;28;20185;-67
2020/12/31 00:02:51;;;;;;;1.70;0.20;;;3.90;99.90;;;;;;5054477;28;20209;-67
2020/12/31 00:05:16;;;;;;;2.20;1.03;;;3.90;99.90;;;;;;5066761;28;20189;-67
2020/12/31 00:07:42;;;;;;;5.33;2.47;;;3.90;99.90;;;;;;5050563;28;20680;-68
2020/12/31 00:10:08;;;;;;;1.70;0.20;;;3.90;99.90;;;;;;5050671;28;20256;-66
2020/12/31 00:12:33;;;;;;;1.70;0.20;;;3.90;99.90;;;;;;5062558;28;20189;-67
2020/12/31 00:14:59;;;;;;;1.73;0.30;;;4.00;99.90;;;;;;5049666;28;20228;-68
2020/12/31 00:17:24;;;;;;;1.70;0.20;;;3.90;99.90;;;;;;5049148;28;20177;-67
2020/12/31 00:19:50;;;;;;;2.67;1.40;;;3.90;99.90;;;;;;5062264;28;20210;-67
2020/12/31 00:22:15;;;;;;;1.70;0.20;;;4.00;99.90;;;;;;5057359;28;20673;-67
2020/12/31 00:24:41;;;;;;;1.70;0.20;;;4.00;99.90;;;;;;5060932;28;20260;-67
2020/12/31 00:27:07;;;;;;;1.70;0.20;;;4.00;99.90;;;;;;5055155;28;20188;-68
2020/12/31 00:29:32;;;;;;;1.90;0.53;;;4.00;99.90;;;;;;5052956;28;20208;-67
2020/12/31 00:31:58;;;;;;;3.07;0.80;;;4.00;99.90;;;;;;5055926;28;20189;-67
2020/12/31 00:34:23;;;;;;;2.10;0.83;;;4.00;99.90;;;;;;5057178;28;20299;-67
2020/12/31 00:36:50;;;;;;;1.70;0.20;;;4.10;99.90;;;;;;5052709;28;20197;-67
2020/12/31 00:39:15;;;;;;;4.00;2.42;;;4.10;99.90;;;;;;5053398;28;20212;-66
2020/12/31 00:41:41;;;;;;;2.23;0.80;;;4.10;99.90;;;;;;5039000;28;20190;-67
2020/12/31 00:44:07;;;;;;;1.70;0.20;;;4.00;99.90;;;;;;5058928;28;20196;-67
2020/12/31 00:46:32;;;;;;;1.90;0.60;;;4.00;99.90;;;;;;5053753;28;20193;-67
2020/12/31 00:48:58;;;;;;;1.70;0.20;;;4.10;99.90;;;;;;5054237;28;20247;-66
2020/12/31 00:51:23;;;;;;;4.33;2.17;;;4.10;99.90;;;;;;5054715;28;20196;-67
2020/12/31 00:53:49;;;;;;;1.70;0.20;;;4.00;99.90;;;;;;5062110;28;20650;-67
2020/12/31 00:56:14;;;;;;;2.90;1.10;;;4.00;99.90;;;;;;5050616;28;20178;-66
2020/12/31 00:58:40;;;;;;;2.13;0.73;;;4.00;99.90;;;;;;5059258;28;20188;-67
2020/12/31 01:01:06;;;;;;;1.80;0.30;;;4.00;99.90;;;;;;5060841;28;20180;-67
2020/12/31 01:03:31;;;;;;;1.70;0.20;;;4.00;99.90;;;;;;5050079;28;20707;-67
2020/12/31 01:05:57;;;;;;;1.70;0.20;;;4.00;99.90;;;;;;5055844;28;20193;-67
2020/12/31 01:08:26;;;;;;;1.70;0.20;;;4.10;99.90;;;;;;5054057;28;20307;-67
2020/12/31 01:10:52;;;;;;;3.20;1.85;;;4.10;99.90;;;;;;5049775;28;20197;-67
2020/12/31 01:13:17;;;;;;;2.20;0.60;;;4.00;99.90;;;;;;5053811;28;20214;-67
2020/12/31 01:15:43;;;;;;;1.70;0.20;;;4.00;99.90;;;;;;5053127;28;20595;-67
2020/12/31 01:18:08;;;;;;;2.57;0.60;;;4.00;99.90;;;;;;5053209;28;20216;-67
2020/12/31 01:20:34;;;;;;;1.70;0.20;;;4.00;99.90;;;;;;5055792;28;20189;-67
2020/12/31 01:22:59;;;;;;;2.53;0.63;;;4.00;99.90;;;;;;5061087;28;20699;-67
2020/12/31 01:25:25;;;;;;;1.70;0.20;;;4.00;99.90;;;;;;5057484;28;20196;-67
2020/12/31 01:27:50;;;;;;;1.70;0.20;;;4.00;99.90;;;;;;5066194;28;20219;-67
2020/12/31 01:30:16;;;;;;;2.67;1.13;;;4.00;99.90;;;;;;5051695;28;20252;-67
2020/12/31 01:32:41;;;;;;;1.70;0.20;;;4.10;99.90;;;;;;5053145;28;20571;-66
2020/12/31 01:35:07;;;;;;;7.23;3.73;;;4.10;99.90;;;;;;5061943;28;20192;-67
2020/12/31 01:37:33;;;;;;;1.90;0.53;;;4.10;99.90;;;;;;5051412;28;20215;-67
2020/12/31 01:39:58;;;;;;;1.77;0.20;;;4.10;99.90;;;;;;5052339;28;20189;-66
2020/12/31 01:42:24;;;;;;;2.77;1.20;;;4.10;99.90;;;;;;5057864;28;20183;-68
2020/12/31 01:44:49;;;;;;;1.77;0.20;;;4.10;99.90;;;;;;5049048;28;20194;-66
2020/12/31 01:47:15;;;;;;;2.00;0.50;;;4.10;99.90;;;;;;5059290;28;20186;-67
2020/12/31 01:49:42;;;;;;;2.40;0.90;;;4.10;99.90;;;;;;5049017;28;20699;-67
2020/12/31 01:52:08;;;;;;;1.73;0.20;;;4.20;99.90;;;;;;5054507;28;20632;-67
2020/12/31 01:54:34;;;;;;;1.73;0.20;;;4.20;99.90;;;;;;5060697;28;20205;-66
2020/12/31 01:57:00;;;;;;;1.70;0.20;;;4.20;99.90;;;;;;5060718;28;20177;-66
2020/12/31 01:59:26;;;;;;;1.73;0.20;;;4.20;99.90;;;;;;5058379;28;20197;-67
2020/12/31 02:01:52;;;;;;;2.70;0.90;;;4.20;99.90;;;;;;5062700;28;20272;-66
2020/12/31 02:04:19;;;;;;;1.70;0.20;;;4.20;99.90;;;;;;5054445;28;20455;-66
2020/12/31 02:06:45;;;;;;;1.70;0.20;;;4.10;99.90;;;;;;5052844;28;20197;-68
2020/12/31 02:09:11;;;;;;;1.70;0.20;;;4.10;99.90;;;;;;5054498;28;20204;-66
2020/12/31 02:11:37;;;;;;;1.70;0.20;;;4.20;99.90;;;;;;5050107;28;20186;-66
2020/12/31 02:14:04;;;;;;;1.70;0.20;;;4.30;99.90;;;;;;5056404;28;20459;-66
2020/12/31 02:16:37;;;;;;;1.70;0.20;;;4.30;99.90;;;;;;5054947;28;20181;-67
2020/12/31 02:19:06;;;;;;;1.70;0.20;;;4.30;99.90;;;;;;5051240;28;20613;-66
2020/12/31 02:21:34;;;;;;;1.70;0.20;;;4.30;99.90;;;;;;5055280;28;20217;-67
2020/12/31 02:24:01;;;;;;;6.90;2.55;;;4.30;99.90;;;;;;5055336;28;20219;-66
2020/12/31 02:26:28;;;;;;;3.50;1.98;;;4.20;99.90;;;;;;5052618;28;20185;-66
2020/12/31 02:28:55;;;;;;;2.85;0.88;;;4.20;99.90;;;;;;5062380;28;20236;-67
2020/12/31 02:31:21;;;;;;;1.70;0.20;;;4.10;99.90;;;;;;5058199;28;20192;-66
2020/12/31 02:33:49;;;;;;;1.80;0.43;;;4.10;99.90;;;;;;5051348;28;20232;-67
2020/12/31 02:36:15;;;;;;;1.77;0.20;;;4.20;99.90;;;;;;5058222;28;20294;-66
2020/12/31 02:38:42;;;;;;;1.70;0.20;;;4.20;99.90;;;;;;5047395;28;20192;-67
2020/12/31 02:41:08;;;;;;;1.80;0.20;;;4.20;99.90;;;;;;5061000;28;20188;-67
2020/12/31 02:43:34;;;;;;;1.70;0.20;;;4.30;99.90;;;;;;5064023;28;20254;-67
2020/12/31 02:46:00;;;;;;;2.17;0.73;;;4.40;99.90;;;;;;5048143;28;20196;-67
2020/12/31 02:48:25;;;;;;;1.70;0.20;;;4.30;99.90;;;;;;5066022;28;20205;-67
2020/12/31 02:50:51;;;;;;;1.70;0.20;;;4.30;99.90;;;;;;5062048;28;20268;-66
2020/12/31 02:53:16;;;;;;;3.00;1.63;;;4.30;99.90;;;;;;5048114;28;20201;-66
2020/12/31 02:55:42;;;;;;;1.70;0.20;;;4.30;99.90;;;;;;5031017;28;20181;-67
2020/12/31 02:58:07;;;;;;;1.77;0.30;;;4.30;99.90;;;;;;5058082;28;20195;-67
2020/12/31 03:00:33;;;;;;;1.70;0.20;;;4.20;99.90;;;;;;5058812;28;20275;-67
2020/12/31 03:02:58;;;;;;;2.27;0.93;;;4.20;99.90;;;;;;5059652;28;20208;-67
2020/12/31 03:05:23;;;;;;;1.70;0.20;;;4.20;99.90;;;;;;5043866;28;20655;-67
2020/12/31 03:07:49;;;;;;;4.57;2.50;;;4.20;99.90;;;;;;5049428;28;20208;-66
2020/12/31 03:10:15;;;;;;;1.70;0.30;;;4.20;99.90;;;;;;5054474;28;20240;-67
2020/12/31 03:12:40;;;;;;;1.73;0.23;;;4.20;99.90;;;;;;5060515;28;20707;-67
2020/12/31 03:15:11;;;;;;;2.60;1.37;;;4.20;99.90;;;;;;5054844;28;20244;-67
2020/12/31 03:17:37;;;;;;;1.70;0.20;;;4.20;99.90;;;;;;5059587;28;20185;-67
2020/12/31 03:20:04;;;;;;;1.70;0.20;;;4.20;99.90;;;;;;5058939;28;20185;-67
2020/12/31 03:22:30;;;;;;;1.70;0.20;;;4.30;99.90;;;;;;5055592;28;20207;-67
2020/12/31 03:24:56;;;;;;;2.93;1.37;;;4.30;99.90;;;;;;5058088;28;20181;-66
2020/12/31 03:27:21;;;;;;;1.70;0.20;;;4.20;99.90;;;;;;5052971;28;20234;-67
2020/12/31 03:29:47;;;;;;;1.70;0.20;;;4.20;99.90;;;;;;5051678;28;20209;-67
2020/12/31 03:32:12;;;;;;;1.70;0.20;;;4.20;99.90;;;;;;5061448;28;20222;-66
2020/12/31 03:34:38;;;;;;;1.70;0.20;;;4.20;99.90;;;;;;5053687;28;20184;-68
2020/12/31 03:37:03;;;;;;;1.70;0.20;;;4.30;99.90;;;;;;5059786;28;20318;-67
2020/12/31 03:39:29;;;;;;;1.73;0.20;;;4.30;99.90;;;;;;5052633;28;20187;-67
2020/12/31 03:41:54;;;;;;;1.70;0.20;;;4.30;99.90;;;;;;5046554;28;20200;-66
2020/12/31 03:44:20;;;;;;;3.20;1.33;;;4.30;99.90;;;;;;5050752;28;20231;-67
2020/12/31 03:46:45;;;;;;;1.70;0.20;;;4.30;99.90;;;;;;5048466;28;20188;-67
2020/12/31 03:49:11;;;;;;;2.20;0.67;;;4.30;99.90;;;;;;5052242;28;20571;-67
2020/12/31 03:51:36;;;;;;;1.70;0.20;;;4.30;99.90;;;;;;5040424;28;20348;-67
2020/12/31 03:54:02;;;;;;;1.80;0.30;;;4.30;99.90;;;;;;5047843;28;20209;-67
2020/12/31 03:56:27;;;;;;;3.63;1.70;;;4.30;99.90;;;;;;5046942;28;20173;-67
2020/12/31 03:58:53;;;;;;;1.73;0.20;;;4.30;99.90;;;;;;5048088;28;20193;-66
2020/12/31 04:01:18;;;;;;;1.77;0.30;;;4.20;99.90;;;;;;5039508;28;20188;-67
2020/12/31 04:03:44;;;;;;;1.70;0.20;;;4.10;99.90;;;;;;5072402;28;20213;-67
2020/12/31 04:06:09;;;;;;;1.70;0.20;;;4.10;99.90;;;;;;5071822;28;20528;-67
2020/12/31 04:08:35;;;;;;;1.80;0.47;;;4.10;99.90;;;;;;5065413;28;20296;-67
2020/12/31 04:11:00;;;;;;;1.70;0.20;;;4.10;99.90;;;;;;5073754;28;20193;-67
2020/12/31 04:13:25;;;;;;;1.70;0.20;;;4.10;99.90;;;;;;5040852;28;20189;-66
2020/12/31 04:15:51;;;;;;;1.70;0.20;;;4.00;99.90;;;;;;5056626;28;20193;-67
2020/12/31 04:18:16;;;;;;;1.70;0.20;;;4.10;99.90;;;;;;5058821;28;20628;-67
2020/12/31 04:20:42;;;;;;;1.70;0.20;;;4.10;99.90;;;;;;5062880;28;20192;-69
2020/12/31 04:23:07;;;;;;;1.70;0.20;;;4.10;99.90;;;;;;5057077;28;20240;-68
2020/12/31 04:25:33;;;;;;;2.53;0.60;;;4.10;99.90;;;;;;5061756;28;20208;-68
2020/12/31 04:27:58;;;;;;;2.17;0.77;;;4.10;99.90;;;;;;5050161;28;20233;-67
2020/12/31 04:30:24;;;;;;;3.53;1.67;;;4.00;99.90;;;;;;5049556;28;20633;-67
2020/12/31 04:32:49;;;;;;;3.70;1.90;;;4.00;99.90;;;;;;5053810;28;20205;-67
2020/12/31 04:35:15;;;;;;;1.77;0.30;;;4.00;99.90;;;;;;5058149;28;20184;-66
2020/12/31 04:37:40;;;;;;;2.00;0.67;;;3.90;99.90;;;;;;5061340;28;20525;-67
2020/12/31 04:40:06;;;;;;;1.73;0.30;;;3.90;99.90;;;;;;5071604;28;20184;-67
2020/12/31 04:42:37;;;;;;;1.80;0.47;;;4.00;99.90;;;;;;5056334;28;20684;-67
2020/12/31 04:45:05;;;;;;;2.05;0.82;;;4.00;99.90;;;;;;5064766;28;20189;-67
2020/12/31 04:47:47;;;;;;;2.30;0.82;;;4.00;99.90;;;;;;5058581;28;20173;-67
2020/12/31 04:50:17;;;;;;;1.70;0.20;;;4.00;99.90;;;;;;5057091;28;20181;-67
2020/12/31 04:52:43;;;;;;;1.70;0.20;;;4.10;99.90;;;;;;5058344;28;20209;-67
2020/12/31 04:55:09;;;;;;;1.70;0.20;;;4.10;99.90;;;;;;5067500;28;20224;-66
2020/12/31 04:57:35;;;;;;;1.70;0.20;;;4.10;99.90;;;;;;5056652;28;20517;-66
2020/12/31 05:00:00;;;;;;;1.70;0.20;;;4.10;99.90;;;;;;5058434;28;20270;-66
2020/12/31 05:02:26;;;;;;;1.70;0.20;;;4.20;99.90;;;;;;5061451;28;20181;-67
2020/12/31 05:04:52;;;;;;;1.70;0.20;;;4.10;99.90;;;;;;5055264;28;20196;-66
2020/12/31 05:07:18;;;;;;;1.70;0.20;;;4.20;99.90;;;;;;5056218;28;20591;-66
2020/12/31 05:09:43;;;;;;;4.82;3.25;;;4.20;99.90;;;;;;5053265;28;20506;-68
2020/12/31 05:12:09;;;;;;;2.10;0.67;;;4.20;99.90;;;;;;5049276;28;20256;-68
2020/12/31 05:14:36;;;;;;;1.70;0.20;;;4.10;99.90;;;;;;5052712;28;20722;-67
2020/12/31 05:17:16;;;;;;;1.70;0.20;;;4.10;99.90;;;;;;5055224;28;20191;-67
2020/12/31 05:19:42;;;;;;;2.10;0.55;;;4.10;99.90;;;;;;5049434;28;20222;-67
2020/12/31 05:22:11;;;;;;;2.60;1.55;;;4.20;99.90;;;;;;5065988;28;20180;-68
2020/12/31 05:24:38;;;;;;;1.73;0.20;;;4.20;99.90;;;;;;5054069;28;20189;-68
2020/12/31 05:27:15;;;;;;;1.70;0.20;;;4.20;99.90;;;;;;5055084;28;20196;-68
2020/12/31 05:29:57;;;;;;;1.73;0.20;;;4.10;99.90;;;;;;5056051;28;20679;-68
2020/12/31 05:32:31;;;;;;;3.92;3.53;;;4.10;99.90;;;;;;5053606;28;20185;-68
2020/12/31 05:34:57;;;;;;;1.70;0.20;;;4.10;99.90;;;;;;5050593;28;20530;-68
2020/12/31 05:37:25;;;;;;;1.70;0.20;;;4.10;99.90;;;;;;5052919;28;20235;-68
2020/12/31 05:39:55;;;;;;;1.70;0.20;;;4.10;99.90;;;;;;5037416;28;20280;-68
2020/12/31 05:42:22;;;;;;;2.30;1.15;;;4.20;99.90;;;;;;5054117;28;20177;-68
2020/12/31 05:45:12;;;;;;;1.73;0.20;;;4.20;99.90;;;;;;5060547;28;20189;-68
2020/12/31 05:47:52;;;;;;;1.80;0.50;;;4.10;99.90;;;;;;5058479;28;20184;-68
2020/12/31 05:50:24;;;;;;;2.60;1.40;;;4.10;99.90;;;;;;5050824;28;20177;-67
2020/12/31 05:52:50;;;;;;;1.70;0.20;;;4.10;99.90;;;;;;5050547;28;20193;-67
2020/12/31 05:55:18;;;;;;;3.45;1.25;;;4.10;99.90;;;;;;5059110;28;20169;-68
2020/12/31 05:57:48;;;;;;;1.70;0.20;;;4.10;99.90;;;;;;5057172;28;20185;-68
2020/12/31 06:00:19;;;;;;;1.70;0.20;;;4.10;99.90;;;;;;5054015;28;20686;-68
2020/12/31 06:02:53;;;;;;;1.70;0.20;;;4.10;99.90;;;;;;5062699;28;20752;-68
2020/12/31 06:05:21;;;;;;;1.70;0.20;;;4.10;99.90;;;;;;5051146;28;20184;-68
2020/12/31 06:07:55;;;;;;;2.47;0.80;;;4.10;99.90;;;;;;5055124;28;20203;-67
2020/12/31 06:10:29;;;;;;;3.45;1.25;;;4.10;99.90;;;;;;5063674;28;20181;-67
2020/12/31 06:13:05;;;;;;;1.70;0.20;;;4.10;99.90;;;;;;5052561;28;20206;-68
2020/12/31 06:15:35;;;;;;;1.70;0.20;;;4.10;99.90;;;;;;5044916;28;20165;-67
2020/12/31 06:18:02;;;;;;;1.80;0.43;;;4.10;99.90;;;;;;5059487;28;20540;-68
2020/12/31 06:20:29;;;;;;;1.90;0.65;;;4.10;99.90;;;;;;5052778;28;20193;-69
2020/12/31 06:23:25;;;;;;;2.10;0.40;;;4.00;99.90;;;;;;5058111;28;20209;-69
2020/12/31 06:25:51;;;;;;;1.70;0.30;;;4.10;99.90;;;;;;5050029;28;20201;-69
2020/12/31 06:28:17;;;;;;;3.50;1.17;;;4.10;99.90;;;;;;5053759;28;20652;-69
2020/12/31 06:30:44;;;;;;;1.70;0.20;;;4.10;99.90;;;;;;5053232;28;20209;-69
2020/12/31 06:33:14;;;;;;;1.70;0.20;;;4.10;99.90;;;;;;5050349;28;20278;-69
2020/12/31 06:35:40;;;;;;;1.70;0.20;;;4.10;99.90;;;;;;5050859;28;20185;-69
2020/12/31 06:38:07;;;;;;;1.95;0.50;;;4.10;99.90;;;;;;5057297;28;20212;-69
2020/12/31 06:40:33;;;;;;;1.70;0.20;;;4.10;99.90;;;;;;5052011;28;20177;-69
2020/12/31 06:43:10;;;;;;;2.63;1.27;;;4.20;99.90;;;;;;5044149;28;20213;-69
2020/12/31 06:45:37;;;;;;;1.70;0.20;;;4.20;99.90;;;;;;5052965;28;20251;-70
2020/12/31 06:48:23;;;;;;;1.90;0.50;;;4.20;99.90;;;;;;5053527;28;20548;-69
2020/12/31 06:50:59;;;;;;;2.60;0.93;;;4.10;99.90;;;;;;5036819;28;20212;-69
2020/12/31 06:53:29;;;;;;;1.80;0.32;;;4.20;99.90;;;;;;5052200;28;20250;-69
2020/12/31 06:55:55;;;;;;;1.73;0.20;;;4.20;99.90;;;;;;5062693;28;20268;-69
2020/12/31 06:58:22;;;;;;;1.70;0.20;;;4.20;99.90;;;;;;5053033;28;20664;-69
2020/12/31 07:00:48;;;;;;;1.70;0.20;;;4.20;99.90;;;;;;5045123;28;20200;-69
2020/12/31 07:03:14;;;;;;;1.70;0.30;;;4.20;99.90;;;;;;5057616;28;20615;-69
2020/12/31 07:05:40;;;;;;;1.90;0.70;;;4.30;99.90;;;;;;5051887;28;20215;-69
2020/12/31 07:08:05;;;;;;;1.90;0.43;;;4.30;99.90;;;;;;5054033;28;21302;-69
2020/12/31 07:10:51;;;;;;;1.70;0.20;;;4.20;99.90;;;;;;5058731;28;20719;-69
2020/12/31 07:13:32;;;;;;;2.40;1.00;;;4.30;99.90;;;;;;5052593;28;20769;-69
2020/12/31 07:15:57;;;;;;;1.70;0.20;;;4.30;99.90;;;;;;5055043;28;20211;-69
2020/12/31 07:18:23;;;;;;;1.70;0.20;;;4.30;99.90;;;;;;5060879;28;20195;-69
2020/12/31 07:20:50;;;;;;;2.33;1.67;;;4.30;99.90;;;;;;5055329;28;20645;-69
2020/12/31 07:23:15;;;;;;;1.70;0.20;;;4.40;99.90;;;;;;5051103;28;20216;-70
2020/12/31 07:25:44;;;;;;;1.70;0.20;;;4.40;99.90;;;;;;5058352;28;20579;-69
2020/12/31 07:28:17;;;;;;;1.73;0.20;;;4.40;99.90;;;;;;5037499;28;20208;-69
2020/12/31 07:30:52;;;;;;;2.33;0.45;;;4.50;99.90;;;;;;5058400;28;20718;-69
2020/12/31 07:33:37;;;;;;;1.70;0.20;;;4.50;99.90;;;;;;5063310;28;20212;-69
2020/12/31 07:36:13;;;;;;;1.70;0.20;;;4.40;99.90;;;;;;5059766;28;20189;-69
2020/12/31 07:38:39;;;;;;;1.70;0.20;;;4.40;99.90;;;;;;5061556;28;20200;-70
2020/12/31 07:41:04;;;;;;;1.70;0.30;;;4.50;99.90;;;;;;5064692;28;20190;-69
2020/12/31 07:43:30;;;;;;;1.97;0.77;;;4.60;99.90;;;;;;5054399;28;20208;-69
2020/12/31 07:46:03;;;;;;;1.70;0.20;;;4.60;99.90;;;;;;5059617;28;20200;-69
2020/12/31 07:48:30;;;;;;;1.75;0.20;;;4.60;99.90;;;;;;5057464;28;20213;-69
2020/12/31 07:51:00;;;;;;;2.50;1.15;;;4.70;99.90;;;;;;5063275;28;20180;-69
2020/12/31 07:53:29;;;;;;;1.70;0.20;;;4.60;99.90;;;;;;5052961;28;20540;-69
2020/12/31 07:55:55;;;;;;;1.70;0.20;;;4.60;99.90;;;;;;5054815;28;20188;-69
2020/12/31 07:58:22;;;;;;;1.70;0.20;;;4.60;99.90;;;;;;5055070;28;20185;-69
2020/12/31 08:01:06;;;;;;;3.08;1.05;;;4.70;99.90;;;;;;5057064;28;20455;-69
2020/12/31 08:03:32;;;;;;;1.73;0.20;;;4.60;99.90;;;;;;5062490;28;20221;-69
2020/12/31 08:05:59;;;;;;;2.00;0.88;;;4.60;99.90;;;;;;5061709;28;20197;-69
2020/12/31 08:08:26;;;;;;;1.70;0.20;;;4.50;99.90;;;;;;5031629;28;20208;-70
2020/12/31 08:10:51;;;;;;;1.80;0.32;;;4.50;99.90;;;;;;5054199;28;20173;-69
2020/12/31 08:13:17;;;;;;;1.70;0.20;;;4.50;99.90;;;;;;5052429;28;20202;-69
2020/12/31 08:15:50;;;;;;;2.10;0.53;;;4.50;99.90;;;;;;5054446;28;20213;-69
2020/12/31 08:18:17;;;;;;;1.70;0.20;;;4.50;99.90;;;;;;5031145;28;20173;-69
2020/12/31 08:20:43;;;;;;;1.70;0.30;;;4.50;99.90;;;;;;5045485;28;20185;-69
2020/12/31 08:23:17;;;;;;;1.70;0.20;;;4.50;99.90;;;;;;5053146;28;20205;-69
2020/12/31 08:25:44;;;;;;;2.20;0.55;;;4.40;99.90;;;;;;5052329;28;20192;-69
2020/12/31 08:28:10;;;;;;;1.70;0.20;;;4.40;99.90;;;;;;5051998;28;20250;-69
2020/12/31 08:30:37;;;;;;;1.70;0.20;;;4.50;99.90;;;;;;5055192;28;20181;-69
2020/12/31 08:33:04;;;;;;;1.80;0.30;;;4.40;99.90;;;;;;5056923;28;20630;-69
2020/12/31 08:35:32;;;;;;;1.70;0.20;;;4.50;99.90;;;;;;5056702;28;20182;-69
2020/12/31 08:38:06;;;;;;;1.73;0.20;;;4.50;99.90;;;;;;5057423;28;20185;-69
2020/12/31 08:40:39;;;;;;;1.70;0.20;;;4.60;99.90;;;;;;5064892;28;20207;-69
2020/12/31 08:43:08;;;;;;;2.03;0.55;;;4.60;99.90;;;;;;5034585;28;20209;-68
2020/12/31 08:45:34;;;;;;;1.80;0.43;;;4.60;99.90;;;;;;5035697;28;20181;-65
2020/12/31 08:48:16;;;;;;;1.70;0.30;;;4.70;99.90;;;;;;5056201;28;20567;-61
2020/12/31 08:50:58;;;;;;;1.70;0.20;;;4.70;99.90;;;;;;5047590;28;20185;-65
2020/12/31 08:53:23;;;;;;;1.70;0.20;;;4.80;99.90;;;;;;5056517;28;21139;-63
2020/12/31 08:55:49;;;;;;;1.97;0.47;;;4.80;99.90;;;;;;5054359;28;20216;-63
2020/12/31 08:58:16;;;;;;;1.70;0.20;;;4.80;99.90;;;;;;5054697;28;20184;-64
2020/12/31 09:00:43;;;;;;;2.20;0.90;;;4.80;99.90;;;;;;5042256;28;20262;-60
2020/12/31 09:03:09;;;;;;;1.85;0.38;;;4.70;99.90;;;;;;5055388;28;20208;-63
2020/12/31 09:05:35;;;;;;;1.70;0.20;;;4.70;99.90;;;;;;5038099;28;20193;-63
2020/12/31 09:08:06;;;;;;;1.70;0.20;;;4.70;99.90;;;;;;5053889;28;20228;-62
2020/12/31 09:10:33;;;;;;;1.70;0.20;;;4.70;99.90;;;;;;5058278;28;20439;-62
2020/12/31 09:12:59;;;;;;;2.20;0.82;;;4.70;99.90;;;;;;5053154;28;20205;-64
2020/12/31 09:15:25;;;;;;;1.70;0.20;;;4.60;99.90;;;;;;5054311;28;20194;-64
2020/12/31 09:17:51;;;;;;;3.10;1.35;;;4.60;99.90;;;;;;5051590;28;20208;-63
2020/12/31 09:20:22;;;;;;;1.70;0.20;;;4.60;99.90;;;;;;5053102;28;20200;-64
2020/12/31 09:22:48;;;;;;;2.55;0.50;;;4.40;99.90;;;;;;5055684;28;20193;-64
2020/12/31 09:25:14;;;;;;;1.70;0.20;;;4.40;99.90;;;;;;5049900;28;20207;-63
2020/12/31 09:27:41;;;;;;;1.80;0.20;;;4.40;99.90;;;;;;5037203;28;20211;-63
2020/12/31 09:30:10;;;;;;;1.70;0.20;;;4.40;99.90;;;;;;5043337;28;20192;-62
2020/12/31 09:32:36;;;;;;;3.22;1.20;;;4.40;99.90;;;;;;5052786;28;20272;-62
2020/12/31 09:35:03;;;;;;;1.70;0.20;;;4.40;99.90;;;;;;5059303;28;20205;-62
2020/12/31 09:37:29;;;;;;;1.70;0.20;;;4.40;99.90;;;;;;5053111;28;20423;-62
2020/12/31 09:39:54;;;;;;;1.70;0.20;;;4.30;99.90;;;;;;5054395;28;20189;-63
2020/12/31 09:42:20;;;;;;;2.07;0.80;;;4.30;99.90;;;;;;5055719;28;20181;-62
2020/12/31 09:44:45;;;;;;;1.70;0.20;;;4.30;99.90;;;;;;5066167;28;20559;-62
2020/12/31 09:47:11;;;;;;;3.07;1.87;;;4.30;99.90;;;;;;5050520;28;20184;-62
2020/12/31 09:49:36;;;;;;;1.70;0.20;;;4.20;99.90;;;;;;5057057;28;20217;-62
2020/12/31 09:52:02;;;;;;;1.70;0.20;;;4.10;99.90;;;;;;5047473;28;20594;-62
2020/12/31 09:54:27;;;;;;;1.70;0.20;;;4.00;99.90;;;;;;5050307;28;20197;-62
2020/12/31 09:56:53;;;;;;;4.87;4.57;;;4.00;99.90;;;;;;5049774;28;20177;-62
2020/12/31 09:59:18;;;;;;;2.27;0.90;;;3.90;99.90;;;;;;5060659;28;20200;-64
2020/12/31 10:01:45;;;;;;;1.70;0.20;;;3.80;99.90;;;;;;5069113;28;20204;-64
2020/12/31 10:04:11;;;;;;;1.77;0.45;;;3.80;99.90;;;;;;5072442;28;20675;-63
2020/12/31 10:06:37;;;;;;;1.75;0.20;;;3.80;99.90;;;;;;5062468;28;20180;-65
2020/12/31 10:09:03;;;;;;;1.70;0.20;;;3.70;99.90;;;;;;5070070;28;20209;-66
2020/12/31 10:11:29;;;;;;;1.80;0.30;;;3.80;99.90;;;;;;5069525;28;20191;-64
2020/12/31 10:13:54;;;;;;;2.17;1.48;;;3.90;99.90;;;;;;5054137;28;20201;-66
2020/12/31 10:16:20;;;;;;;1.80;0.40;;;3.80;99.90;;;;;;5053880;28;20546;-64
2020/12/31 10:18:45;;;;;;;1.70;0.20;;;3.90;99.90;;;;;;5065621;28;20181;-65
2020/12/31 10:21:13;;;;;;;5.80;2.03;;;3.80;99.90;;;;;;5053418;28;20215;-66
2020/12/31 10:23:38;;;;;;;2.00;0.95;;;3.90;99.90;;;;;;5052136;28;20213;-64
2020/12/31 10:26:04;;;;;;;2.93;1.70;;;3.90;99.90;;;;;;5055499;28;20247;-64
2020/12/31 10:28:29;;;;;;;1.70;0.20;;;3.90;99.90;;;;;;5055122;28;20670;-64
2020/12/31 10:30:55;;;;;;;1.70;0.20;;;3.80;99.90;;;;;;5054198;28;20185;-64
2020/12/31 10:33:20;;;;;;;1.70;0.20;;;3.80;99.90;;;;;;5050276;28;20208;-65
2020/12/31 10:35:46;;;;;;;1.70;0.20;;;3.90;99.90;;;;;;5053160;28;20223;-65
2020/12/31 10:38:11;;;;;;;1.70;0.20;;;3.80;99.90;;;;;;5053574;28;20564;-64
2020/12/31 10:40:37;;;;;;;1.70;0.20;;;3.80;99.90;;;;;;5053657;28;20192;-65
2020/12/31 10:43:03;;;;;;;1.70;0.20;;;3.90;99.90;;;;;;5057100;28;20206;-65
2020/12/31 10:45:28;;;;;;;1.70;0.20;;;3.90;99.90;;;;;;5055250;28;20178;-65
2020/12/31 10:47:54;;;;;;;1.70;0.20;;;4.00;99.90;;;;;;5051327;28;20555;-66
2020/12/31 10:50:19;;;;;;;1.70;0.20;;;4.00;99.90;;;;;;5052273;28;20188;-65
2020/12/31 10:52:45;;;;;;;1.70;0.20;;;3.90;99.90;;;;;;5056410;28;20518;-65
2020/12/31 10:55:10;;;;;;;1.70;0.20;;;3.90;99.90;;;;;;5054489;28;20251;-66
2020/12/31 10:57:36;;;;;;;1.70;0.20;;;3.90;99.90;;;;;;5054095;28;20185;-66
2020/12/31 11:00:02;;;;;;;1.70;0.20;;;3.90;99.90;;;;;;5055971;28;20600;-66
2020/12/31 11:02:27;;;;;;;1.80;0.30;;;3.90;99.90;;;;;;5053914;28;20185;-65
2020/12/31 11:04:53;;;;;;;2.20;0.60;;;4.00;99.90;;;;;;5057697;28;20531;-66
2020/12/31 11:07:18;;;;;;;1.70;0.20;;;3.90;99.90;;;;;;5058733;28;20571;-66
2020/12/31 11:09:44;;;;;;;1.70;0.20;;;3.90;99.90;;;;;;5051303;28;20280;-65
2020/12/31 11:12:09;;;;;;;1.70;0.20;;;3.90;99.90;;;;;;5060215;28;20228;-65
2020/12/31 11:14:35;;;;;;;1.70;0.20;;;3.90;99.90;;;;;;5052499;28;20217;-65
2020/12/31 11:17:00;;;;;;;1.70;0.20;;;3.90;99.90;;;;;;5054703;28;20244;-65
2020/12/31 11:19:26;;;;;;;1.70;0.20;;;3.90;99.90;;;;;;5061573;28;20191;-65
2020/12/31 11:21:52;;;;;;;1.80;0.30;;;3.90;99.90;;;;;;5056643;28;20521;-65
2020/12/31 11:24:17;;;;;;;1.70;0.20;;;3.90;99.90;;;;;;5056169;28;20463;-65
2020/12/31 11:26:43;;;;;;;1.70;0.20;;;3.90;99.90;;;;;;5063965;28;20196;-65
2020/12/31 11:29:09;;;;;;;1.70;0.20;;;3.80;99.90;;;;;;5054613;28;20209;-66
2020/12/31 11:31:35;;;;;;;1.70;0.20;;;3.90;99.90;;;;;;5056871;28;20431;-65
2020/12/31 11:34:00;;;;;;;1.70;0.20;;;3.90;99.90;;;;;;5063040;28;20224;-66
2020/12/31 11:36:27;;;;;;;1.70;0.20;;;3.90;99.90;;;;;;5052092;28;20434;-68
2020/12/31 11:38:53;;;;;;;1.70;0.20;;;3.90;99.90;;;;;;5051816;28;20719;-65
2020/12/31 11:41:19;;;;;;;1.70;0.20;;;4.00;99.90;;;;;;5060141;28;20189;-65
2020/12/31 11:43:45;;;;;;;1.70;0.20;;;4.00;99.90;;;;;;5051148;28;20697;-65
2020/12/31 11:46:11;;;;;;;1.70;0.20;;;4.00;99.90;;;;;;5049844;28;20211;-65
2020/12/31 11:48:37;;;;;;;1.70;0.20;;;4.10;99.90;;;;;;5045098;28;20292;-65
2020/12/31 11:51:04;;;;;;;1.70;0.20;;;4.20;99.90;;;;;;5051094;28;20432;-64
2020/12/31 11:53:30;;;;;;;1.70;0.20;;;4.30;99.90;;;;;;5052607;28;20564;-65
2020/12/31 11:55:58;;;;;;;1.70;0.20;;;4.40;99.90;;;;;;5048796;28;20189;-65
2020/12/31 11:58:24;;;;;;;1.70;0.20;;;4.40;99.90;;;;;;5037492;28;20192;-65
2020/12/31 12:00:49;;;;;;;1.70;0.20;;;4.50;99.90;;;;;;5053267;28;20552;-65
2020/12/31 12:03:15;;;;;;;1.70;0.20;;;4.50;99.90;;;;;;5055355;28;20201;-65
2020/12/31 12:05:40;;;;;;;1.70;0.20;;;4.50;99.90;;;;;;5057857;28;20226;-65
2020/12/31 12:08:06;;;;;;;1.70;0.20;;;4.50;99.90;;;;;;5058633;28;20570;-65
2020/12/31 12:10:33;;;;;;;1.70;0.20;;;4.60;99.90;;;;;;5054583;28;20186;-67
2020/12/31 12:12:59;;;;;;;2.10;0.77;;;4.60;99.90;;;;;;5055477;28;20205;-65
2020/12/31 12:15:24;;;;;;;1.70;0.20;;;4.50;99.90;;;;;;5057778;28;20195;-64
2020/12/31 12:17:51;;;;;;;1.70;0.20;;;4.50;99.90;;;;;;5051794;28;20174;-64
2020/12/31 12:20:17;;;;;;;1.70;0.20;;;4.50;99.90;;;;;;5056580;28;20467;-65
2020/12/31 12:22:43;;;;;;;1.70;0.20;;;4.60;99.90;;;;;;5052743;28;20256;-65
2020/12/31 12:25:09;;;;;;;1.70;0.20;;;4.60;99.90;;;;;;5058291;28;20612;-65
2020/12/31 12:27:35;;;;;;;1.70;0.20;;;4.50;99.90;;;;;;5063536;28;20189;-65
2020/12/31 12:30:05;;;;;;;1.70;0.20;;;4.50;99.90;;;;;;5066166;28;20244;-64
2020/12/31 12:32:30;;;;;;;1.70;0.20;;;4.60;99.90;;;;;;5060011;28;20181;-66
2020/12/31 12:34:56;;;;;;;2.67;1.13;;;4.60;99.90;;;;;;5054454;28;20195;-65
2020/12/31 12:37:22;;;;;;;1.90;0.50;;;4.50;99.90;;;;;;5054204;28;20182;-66
2020/12/31 12:39:48;;;;;;;1.70;0.20;;;4.50;99.90;;;;;;5057439;28;20189;-66
2020/12/31 12:42:13;;;;;;;2.10;0.40;;;4.50;99.90;;;;;;5065926;28;20235;-65
2020/12/31 12:44:39;;;;;;;1.70;0.20;;;4.50;99.90;;;;;;5051957;28;20189;-66
2020/12/31 12:47:04;;;;;;;1.70;0.20;;;4.50;99.90;;;;;;5051935;28;20733;-64
2020/12/31 12:49:30;;;;;;;1.70;0.20;;;4.50;99.90;;;;;;5057552;28;20216;-65
2020/12/31 12:51:55;;;;;;;1.70;0.20;;;4.60;99.90;;;;;;5054777;28;20191;-65
2020/12/31 12:54:21;;;;;;;1.70;0.20;;;4.60;99.90;;;;;;5064264;28;20208;-66
2020/12/31 12:56:52;;;;;;;1.70;0.20;;;4.60;99.90;;;;;;5053410;28;20189;-65